Time;durP1;ratioP1;P1;durP2;ratioP2;P2;SDS_P1;SDS_P2;PMS_P1;PMS_P2;Temp;Humidity;BMP_temperature;BMP_pressure;BME280_temperature;BME280_humidity;BME280_pressure;Samples;Min_cycle;Max_cycle;Signal;HPM_P1;HPM_P2
2021/04/16 00:01:32;;;;;;;5.13;2.80;;;4.60;64.00;;;;;;5053898;28;20195;-83
2021/04/16 00:03:58;;;;;;;5.43;3.00;;;4.50;64.10;;;;;;5053989;28;20176;-83
2021/04/16 00:06:24;;;;;;;4.67;3.23;;;4.50;64.20;;;;;;5052739;28;20183;-83
2021/04/16 00:08:49;;;;;;;3.47;2.60;;;4.40;64.10;;;;;;5052689;28;20182;-83
2021/04/16 00:11:22;;;;;;;4.07;3.43;;;4.40;64.20;;;;;;5052433;28;20255;-83
2021/04/16 00:13:48;;;;;;;5.27;3.30;;;4.30;64.10;;;;;;5052613;28;20172;-83
2021/04/16 00:16:17;;;;;;;7.03;3.10;;;4.30;64.30;;;;;;5052459;28;20556;-83
2021/04/16 00:18:43;;;;;;;4.00;3.27;;;4.30;64.40;;;;;;5053740;28;20195;-83
2021/04/16 00:21:09;;;;;;;4.77;3.10;;;4.30;64.70;;;;;;5053488;28;20222;-83
2021/04/16 00:23:35;;;;;;;3.57;2.67;;;4.20;64.80;;;;;;5053592;28;20259;-83
2021/04/16 00:26:01;;;;;;;5.70;3.00;;;4.10;65.00;;;;;;5052333;28;20200;-83
2021/04/16 00:28:28;;;;;;;5.00;3.00;;;4.10;65.10;;;;;;5052289;28;20176;-83
2021/04/16 00:30:57;;;;;;;4.47;2.50;;;4.10;65.10;;;;;;5052041;28;20262;-83
2021/04/16 00:33:23;;;;;;;4.83;2.90;;;4.00;65.30;;;;;;5052114;28;20168;-83
2021/04/16 00:35:48;;;;;;;4.87;3.40;;;4.00;65.60;;;;;;5053423;28;20691;-83
2021/04/16 00:38:17;;;;;;;3.60;2.67;;;4.00;65.70;;;;;;5052257;28;20259;-83
2021/04/16 00:40:48;;;;;;;5.10;3.10;;;3.90;66.00;;;;;;5053257;28;20203;-83
2021/04/16 00:43:16;;;;;;;4.57;2.90;;;3.80;66.40;;;;;;5053332;28;20225;-83
2021/04/16 00:45:43;;;;;;;3.30;3.00;;;3.80;66.50;;;;;;5052915;28;20557;-83
2021/04/16 00:48:29;;;;;;;4.20;3.17;;;3.80;67.00;;;;;;5053207;28;20254;-83
2021/04/16 00:50:57;;;;;;;3.33;2.70;;;3.70;67.70;;;;;;5053101;28;20210;-83
2021/04/16 00:53:24;;;;;;;7.30;3.20;;;3.60;68.30;;;;;;5053247;28;20214;-83
2021/04/16 00:55:51;;;;;;;4.33;3.27;;;3.40;69.10;;;;;;5051893;28;20171;-83
2021/04/16 00:58:19;;;;;;;2.83;2.53;;;3.30;69.60;;;;;;5053158;28;20175;-83
2021/04/16 01:00:48;;;;;;;3.03;2.73;;;3.20;70.50;;;;;;5052016;28;20540;-83
2021/04/16 01:03:14;;;;;;;4.33;3.10;;;3.10;71.50;;;;;;5051764;28;20257;-83
2021/04/16 01:05:39;;;;;;;4.67;2.67;;;3.00;71.40;;;;;;5053110;28;20176;-83
2021/04/16 01:08:06;;;;;;;3.07;2.87;;;3.00;71.30;;;;;;5051836;28;20179;-83
2021/04/16 01:10:31;;;;;;;3.83;3.07;;;3.00;70.90;;;;;;5051523;28;20576;-83
2021/04/16 01:12:57;;;;;;;5.30;2.70;;;3.00;71.10;;;;;;5051828;28;20175;-83
2021/04/16 01:15:30;;;;;;;4.50;2.57;;;2.90;71.00;;;;;;5053015;28;20218;-83
2021/04/16 01:18:05;;;;;;;3.80;2.93;;;3.00;70.80;;;;;;5053250;28;20504;-83
2021/04/16 01:20:34;;;;;;;5.57;3.50;;;3.00;70.50;;;;;;5051623;28;20277;-83
2021/04/16 01:23:11;;;;;;;4.73;3.57;;;3.00;70.10;;;;;;5051691;28;20174;-83
2021/04/16 01:25:38;;;;;;;7.10;4.07;;;3.20;69.70;;;;;;5051707;28;20175;-83
2021/04/16 01:28:04;;;;;;;6.03;3.67;;;3.20;69.60;;;;;;5052877;28;20182;-83
2021/04/16 01:30:31;;;;;;;5.10;3.50;;;3.10;69.40;;;;;;5052647;28;20281;-83
2021/04/16 01:32:58;;;;;;;6.50;4.00;;;3.20;69.20;;;;;;5052777;28;20169;-83
2021/04/16 01:35:33;;;;;;;4.50;3.50;;;3.20;69.30;;;;;;5053094;28;20171;-83
2021/04/16 01:38:02;;;;;;;3.90;3.17;;;3.20;69.10;;;;;;5051567;28;20169;-83
2021/04/16 01:40:27;;;;;;;6.07;4.00;;;3.20;68.50;;;;;;5052617;28;20193;-83
2021/04/16 01:42:53;;;;;;;5.47;3.60;;;3.20;68.50;;;;;;5052844;28;20185;-83
2021/04/16 01:45:22;;;;;;;12.13;3.90;;;3.10;68.40;;;;;;5051562;28;20552;-83
2021/04/16 01:47:56;;;;;;;4.20;3.63;;;3.10;68.40;;;;;;5051430;28;20268;-83
2021/04/16 01:50:22;;;;;;;5.07;3.80;;;3.00;68.40;;;;;;5051244;28;20210;-83
2021/04/16 01:52:48;;;;;;;8.37;3.90;;;3.00;68.60;;;;;;5052728;28;20235;-83
2021/04/16 01:55:14;;;;;;;5.17;3.27;;;2.90;68.70;;;;;;5051760;28;20172;-83
2021/04/16 01:57:40;;;;;;;4.00;3.40;;;2.80;68.80;;;;;;5056590;28;20190;-83
2021/04/16 02:00:15;;;;;;;5.13;3.53;;;2.80;68.90;;;;;;5055009;28;20677;-83
2021/04/16 02:02:41;;;;;;;6.37;3.60;;;2.70;69.00;;;;;;5055021;28;20586;-83
2021/04/16 02:05:08;;;;;;;5.40;3.50;;;2.70;69.20;;;;;;5054993;28;20180;-83
2021/04/16 02:07:33;;;;;;;4.33;3.30;;;2.80;68.90;;;;;;5056429;28;20168;-83
2021/04/16 02:09:59;;;;;;;3.67;3.27;;;2.80;68.70;;;;;;5055830;28;20210;-83
2021/04/16 02:12:25;;;;;;;5.40;4.20;;;2.70;68.70;;;;;;5054801;28;20178;-83
2021/04/16 02:14:52;;;;;;;4.13;3.53;;;2.60;68.80;;;;;;5056001;28;20250;-83
2021/04/16 02:17:21;;;;;;;4.47;3.87;;;2.50;69.00;;;;;;5054724;28;20227;-83
2021/04/16 02:19:47;;;;;;;5.07;3.93;;;2.60;69.20;;;;;;5055940;28;20175;-83
2021/04/16 02:22:15;;;;;;;5.37;4.10;;;2.50;68.90;;;;;;5054681;28;20178;-83
2021/04/16 02:24:41;;;;;;;4.13;3.60;;;2.50;69.00;;;;;;5055986;28;20347;-83
2021/04/16 02:27:07;;;;;;;6.87;3.90;;;2.40;69.30;;;;;;5055785;28;20256;-83
2021/04/16 02:29:32;;;;;;;4.90;3.27;;;2.30;69.70;;;;;;5054368;28;20213;-83
2021/04/16 02:31:58;;;;;;;6.03;3.70;;;2.30;69.80;;;;;;5055892;28;20697;-83
2021/04/16 02:34:29;;;;;;;4.00;3.30;;;2.30;69.70;;;;;;5054471;28;20655;-83
2021/04/16 02:36:57;;;;;;;3.63;3.13;;;2.30;70.00;;;;;;5054334;28;20187;-83
2021/04/16 02:39:23;;;;;;;4.07;3.10;;;2.30;69.90;;;;;;5054309;28;20179;-83
2021/04/16 02:41:50;;;;;;;3.80;2.97;;;2.10;70.80;;;;;;5055756;28;20196;-83
2021/04/16 02:44:16;;;;;;;4.20;3.03;;;2.00;71.70;;;;;;5055487;28;20666;-83
2021/04/16 02:46:42;;;;;;;4.27;3.33;;;1.80;72.90;;;;;;5054248;28;20181;-83
2021/04/16 02:49:08;;;;;;;4.37;3.40;;;1.80;73.30;;;;;;5055324;28;20268;-83
2021/04/16 02:51:34;;;;;;;6.93;3.10;;;1.80;73.30;;;;;;5055275;28;20231;-83
2021/04/16 02:54:00;;;;;;;4.80;2.97;;;1.70;73.20;;;;;;5054080;28;20668;-83
2021/04/16 02:56:27;;;;;;;3.57;3.23;;;1.80;73.00;;;;;;5055179;28;20172;-83
2021/04/16 02:58:53;;;;;;;4.60;3.50;;;1.80;72.60;;;;;;5053990;28;20208;-83
2021/04/16 03:01:19;;;;;;;4.33;3.20;;;1.70;72.20;;;;;;5053933;28;20202;-83
2021/04/16 03:03:45;;;;;;;3.57;3.23;;;1.70;72.20;;;;;;5055131;28;20260;-83
2021/04/16 03:06:11;;;;;;;5.03;3.23;;;1.60;72.20;;;;;;5053892;28;20184;-83
2021/04/16 03:08:36;;;;;;;5.07;3.00;;;1.60;72.20;;;;;;5054234;28;20513;-83
2021/04/16 03:11:05;;;;;;;3.93;3.10;;;1.60;72.10;;;;;;5054786;28;20262;-83
2021/04/16 03:13:31;;;;;;;6.77;3.50;;;1.60;72.00;;;;;;5053661;28;20227;-83
2021/04/16 03:15:56;;;;;;;3.90;3.50;;;1.60;71.90;;;;;;5054877;28;20264;-83
2021/04/16 03:18:22;;;;;;;7.40;3.97;;;1.60;71.90;;;;;;5054787;28;20176;-83
2021/04/16 03:20:48;;;;;;;3.13;2.77;;;1.50;72.00;;;;;;5053508;28;20570;-83
2021/04/16 03:23:13;;;;;;;4.80;3.33;;;1.40;72.60;;;;;;5053638;28;20177;-83
2021/04/16 03:25:39;;;;;;;4.50;3.40;;;1.40;73.30;;;;;;5054726;28;20180;-83
2021/04/16 03:28:05;;;;;;;4.80;3.20;;;1.40;73.30;;;;;;5053360;28;20209;-83
2021/04/16 03:30:31;;;;;;;3.97;3.20;;;1.40;73.30;;;;;;5053091;28;20218;-83
2021/04/16 03:32:57;;;;;;;4.47;3.40;;;1.40;73.30;;;;;;5054509;28;20181;-83
2021/04/16 03:35:23;;;;;;;5.80;3.63;;;1.40;73.30;;;;;;5053216;28;20554;-83
2021/04/16 03:37:49;;;;;;;4.17;3.30;;;1.40;73.30;;;;;;5053317;28;20193;-83
2021/04/16 03:40:18;;;;;;;4.87;3.53;;;1.40;73.20;;;;;;5054313;28;20236;-83
2021/04/16 03:42:44;;;;;;;5.27;3.37;;;1.40;73.00;;;;;;5054390;28;20191;-83
2021/04/16 03:45:13;;;;;;;4.60;3.40;;;1.40;73.90;;;;;;5053070;28;20183;-83
2021/04/16 03:47:39;;;;;;;4.07;3.57;;;1.50;73.90;;;;;;5054355;28;20168;-83
2021/04/16 03:50:05;;;;;;;3.83;3.27;;;1.40;73.90;;;;;;5052924;28;20218;-83
2021/04/16 03:52:31;;;;;;;4.90;3.87;;;1.50;74.10;;;;;;5053130;28;20187;-83
2021/04/16 03:54:57;;;;;;;9.07;3.60;;;1.50;74.50;;;;;;5054412;28;20679;-83
2021/04/16 03:57:22;;;;;;;4.20;3.77;;;1.40;75.80;;;;;;5052751;28;20180;-83
2021/04/16 03:59:49;;;;;;;10.23;4.03;;;1.50;76.00;;;;;;5052960;28;20595;-83
2021/04/16 04:02:15;;;;;;;3.80;3.40;;;1.50;75.40;;;;;;5053959;28;20173;-83
2021/04/16 04:04:41;;;;;;;5.97;3.97;;;1.60;75.10;;;;;;5052625;28;20233;-83
2021/04/16 04:07:06;;;;;;;4.20;3.73;;;1.60;75.00;;;;;;5053852;28;20174;-83
2021/04/16 04:09:34;;;;;;;4.17;3.40;;;1.60;74.50;;;;;;5052475;28;20723;-83
2021/04/16 04:12:00;;;;;;;8.10;3.97;;;1.60;74.30;;;;;;5052490;28;20706;-83
2021/04/16 04:14:26;;;;;;;4.10;3.30;;;1.60;74.20;;;;;;5053754;28;20173;-83
2021/04/16 04:16:56;;;;;;;4.20;3.70;;;1.60;74.10;;;;;;5052391;28;20186;-83
2021/04/16 04:19:22;;;;;;;4.83;3.40;;;1.60;73.90;;;;;;5053721;28;20167;-83
2021/04/16 04:21:49;;;;;;;8.53;3.90;;;1.60;74.20;;;;;;5052439;28;20286;-83
2021/04/16 04:24:15;;;;;;;5.10;3.80;;;1.60;74.40;;;;;;5052491;28;20714;-83
2021/04/16 04:26:41;;;;;;;3.63;3.20;;;1.60;74.50;;;;;;5053705;28;20169;-83
2021/04/16 04:29:07;;;;;;;4.03;3.63;;;1.60;74.60;;;;;;5053467;28;20168;-83
2021/04/16 04:31:34;;;;;;;5.07;4.17;;;1.60;74.40;;;;;;5052104;28;20661;-83
2021/04/16 04:33:59;;;;;;;4.23;3.50;;;1.60;74.20;;;;;;5052203;28;20177;-83
2021/04/16 04:36:25;;;;;;;4.53;3.23;;;1.60;74.00;;;;;;5052203;28;20182;-83
2021/04/16 04:38:52;;;;;;;4.63;3.77;;;1.60;73.90;;;;;;5053791;28;20534;-83
2021/04/16 04:41:18;;;;;;;4.30;3.80;;;1.60;74.20;;;;;;5053608;28;20253;-83
2021/04/16 04:43:44;;;;;;;6.00;3.90;;;1.60;74.50;;;;;;5053343;28;20641;-83
2021/04/16 04:46:09;;;;;;;4.87;3.77;;;1.60;74.70;;;;;;5052065;28;20190;-83
2021/04/16 04:48:35;;;;;;;8.93;4.00;;;1.80;74.70;;;;;;5053286;28;20758;-83
2021/04/16 04:51:01;;;;;;;4.87;3.20;;;1.70;74.50;;;;;;5051868;28;20738;-83
2021/04/16 04:53:26;;;;;;;7.13;3.70;;;1.70;74.40;;;;;;5051956;28;20647;-83
2021/04/16 04:55:52;;;;;;;5.27;4.00;;;1.70;74.80;;;;;;5053126;28;20263;-83
2021/04/16 04:58:18;;;;;;;6.50;4.10;;;1.70;75.20;;;;;;5053241;28;20172;-83
2021/04/16 05:00:43;;;;;;;6.47;3.57;;;1.70;75.50;;;;;;5053153;28;20203;-83
2021/04/16 05:03:09;;;;;;;6.17;4.00;;;1.80;76.00;;;;;;5051880;28;20171;-83
2021/04/16 05:05:34;;;;;;;9.80;3.90;;;1.80;76.00;;;;;;5053047;28;20646;-83
2021/04/16 05:08:00;;;;;;;8.80;4.00;;;1.90;75.90;;;;;;5053413;28;20640;-83
2021/04/16 05:10:26;;;;;;;7.20;4.30;;;1.90;75.80;;;;;;5051739;28;20215;-83
2021/04/16 05:12:51;;;;;;;4.23;3.70;;;1.90;75.60;;;;;;5051784;28;20526;-83
2021/04/16 05:15:18;;;;;;;4.87;3.67;;;2.00;75.40;;;;;;5051830;28;20572;-83
2021/04/16 05:17:44;;;;;;;5.70;3.63;;;1.90;75.60;;;;;;5053270;28;20568;-83
2021/04/16 05:20:10;;;;;;;9.40;4.30;;;2.00;75.60;;;;;;5051606;28;20195;-83
2021/04/16 05:22:36;;;;;;;4.97;3.57;;;2.00;75.30;;;;;;5051656;28;20559;-83
2021/04/16 05:25:02;;;;;;;5.13;3.67;;;2.10;75.80;;;;;;5053007;28;20174;-83
2021/04/16 05:27:29;;;;;;;7.50;4.20;;;2.10;75.40;;;;;;5052992;28;20180;-83
2021/04/16 05:29:55;;;;;;;8.87;4.47;;;2.20;75.80;;;;;;5051423;28;20243;-83
2021/04/16 05:32:21;;;;;;;5.53;4.17;;;2.30;76.20;;;;;;5056716;28;20172;-83
2021/04/16 05:34:47;;;;;;;8.23;4.33;;;2.30;76.30;;;;;;5055660;28;20169;-82
2021/04/16 05:37:14;;;;;;;4.73;3.97;;;2.40;77.20;;;;;;5055563;28;20551;-83
2021/04/16 05:39:39;;;;;;;6.60;4.00;;;2.50;77.90;;;;;;5056720;28;20180;-83
2021/04/16 05:42:06;;;;;;;5.93;4.27;;;2.50;78.00;;;;;;5056624;28;20188;-83
2021/04/16 05:44:32;;;;;;;6.77;4.23;;;2.60;78.60;;;;;;5056544;28;20183;-83
2021/04/16 05:46:57;;;;;;;6.47;4.07;;;2.60;79.20;;;;;;5055287;28;20565;-83
2021/04/16 05:49:25;;;;;;;6.20;3.90;;;2.50;80.10;;;;;;5056352;28;20233;-84
2021/04/16 05:51:52;;;;;;;10.77;3.73;;;2.50;80.60;;;;;;5055170;28;20211;-83
2021/04/16 05:54:18;;;;;;;4.93;4.10;;;2.60;80.40;;;;;;5056395;28;20596;-83
2021/04/16 05:56:44;;;;;;;6.97;3.93;;;2.70;79.80;;;;;;5055090;28;20177;-83
2021/04/16 05:59:09;;;;;;;7.63;3.80;;;2.80;79.00;;;;;;5056253;28;20202;-83
2021/04/16 06:01:35;;;;;;;11.63;4.17;;;2.80;78.70;;;;;;5056208;28;20205;-83
2021/04/16 06:04:01;;;;;;;6.40;4.60;;;2.90;78.60;;;;;;5056161;28;20184;-83
2021/04/16 06:06:27;;;;;;;8.50;4.30;;;2.90;78.80;;;;;;5054927;28;20177;-83
2021/04/16 06:08:52;;;;;;;17.70;4.40;;;3.00;79.30;;;;;;5054827;28;20204;-83
2021/04/16 06:11:18;;;;;;;6.20;4.50;;;3.10;79.00;;;;;;5054848;28;20223;-84
2021/04/16 06:13:44;;;;;;;6.13;4.50;;;3.00;78.20;;;;;;5056620;28;20177;-83
2021/04/16 06:16:09;;;;;;;6.63;4.90;;;3.00;78.10;;;;;;5054844;28;20175;-84
2021/04/16 06:18:36;;;;;;;6.63;4.90;;;3.10;78.20;;;;;;5054851;28;20215;-83
2021/04/16 06:21:02;;;;;;;5.53;4.30;;;3.20;78.30;;;;;;5054756;28;20199;-84
2021/04/16 06:23:28;;;;;;;5.50;4.60;;;3.30;77.60;;;;;;5054887;28;20178;-83
2021/04/16 06:25:53;;;;;;;5.70;4.07;;;3.40;78.00;;;;;;5056316;28;20710;-83
2021/04/16 06:28:19;;;;;;;6.87;4.37;;;3.50;78.40;;;;;;5055931;28;20180;-83
2021/04/16 06:30:45;;;;;;;9.10;4.57;;;3.60;78.40;;;;;;5055662;28;20214;-83
2021/04/16 06:33:32;;;;;;;9.13;4.30;;;3.70;78.50;;;;;;5055863;28;20175;-83
2021/04/16 06:36:01;;;;;;;10.43;4.67;;;3.80;78.50;;;;;;5055680;28;20232;-83
2021/04/16 06:38:30;;;;;;;9.67;4.50;;;3.90;78.80;;;;;;5055749;28;20195;-83
2021/04/16 06:40:57;;;;;;;12.50;5.03;;;4.00;78.90;;;;;;5055721;28;20266;-83
2021/04/16 06:43:26;;;;;;;8.23;4.90;;;4.10;78.90;;;;;;5054472;28;20178;-83
2021/04/16 06:45:59;;;;;;;10.90;4.60;;;4.20;79.40;;;;;;5055585;28;20182;-83
2021/04/16 06:48:25;;;;;;;7.07;4.80;;;4.20;79.20;;;;;;5054379;28;20178;-83
2021/04/16 06:50:57;;;;;;;6.23;4.93;;;4.20;79.20;;;;;;5055531;28;20303;-83
2021/04/16 06:53:29;;;;;;;9.57;4.90;;;4.20;80.30;;;;;;5055800;28;20206;-82
2021/04/16 06:56:04;;;;;;;8.07;4.37;;;4.30;80.00;;;;;;5055885;28;20165;-82
2021/04/16 06:58:36;;;;;;;9.20;5.40;;;4.40;80.30;;;;;;5055499;28;20186;-83
2021/04/16 07:01:43;;;;;;;12.63;5.13;;;4.50;80.60;;;;;;5054045;28;20305;-83
2021/04/16 07:04:36;;;;;;;9.27;5.47;;;4.70;81.00;;;;;;5055417;28;20163;-84
2021/04/16 07:07:14;;;;;;;9.67;5.57;;;4.90;81.70;;;;;;5053917;28;20271;-83
2021/04/16 07:09:44;;;;;;;7.97;5.50;;;5.00;80.90;;;;;;5055011;28;20274;-82
2021/04/16 07:12:19;;;;;;;11.80;5.57;;;5.10;81.00;;;;;;5055197;28;20167;-83
2021/04/16 07:14:57;;;;;;;17.23;6.70;;;5.30;80.30;;;;;;5054004;28;20168;-83
2021/04/16 07:17:26;;;;;;;12.60;6.77;;;5.40;80.20;;;;;;5055424;28;20156;-83
2021/04/16 07:19:52;;;;;;;12.33;6.90;;;5.50;79.60;;;;;;5054934;28;20219;-83
2021/04/16 07:22:25;;;;;;;9.83;5.70;;;5.70;79.80;;;;;;5054869;28;20172;-83
2021/04/16 07:24:52;;;;;;;10.33;6.40;;;5.80;79.30;;;;;;5053659;28;20663;-83
2021/04/16 07:27:24;;;;;;;15.07;7.00;;;5.90;79.00;;;;;;5053592;28;20269;-83
2021/04/16 07:29:57;;;;;;;13.33;6.87;;;6.00;78.50;;;;;;5053316;28;20189;-83
2021/04/16 07:32:26;;;;;;;14.80;7.60;;;6.30;78.60;;;;;;5053369;28;20172;-83
2021/04/16 07:34:52;;;;;;;9.80;5.83;;;6.20;76.80;;;;;;5053464;28;20172;-83
2021/04/16 07:37:20;;;;;;;9.83;6.57;;;6.40;77.00;;;;;;5054725;28;20168;-83
2021/04/16 07:40:07;;;;;;;8.47;6.03;;;6.50;76.70;;;;;;5054475;28;20252;-83
2021/04/16 07:42:44;;;;;;;8.80;5.37;;;6.50;76.10;;;;;;5054567;28;20149;-83
2021/04/16 07:45:25;;;;;;;7.80;4.77;;;6.60;74.70;;;;;;5053154;28;20651;-83
2021/04/16 07:48:14;;;;;;;11.37;5.63;;;6.60;73.70;;;;;;5054467;28;20680;-82
2021/04/16 07:50:43;;;;;;;10.27;5.77;;;6.70;74.70;;;;;;5054369;28;20246;-83
2021/04/16 07:53:40;;;;;;;12.73;5.53;;;6.90;73.50;;;;;;5052693;28;20551;-83
2021/04/16 07:56:20;;;;;;;10.63;6.43;;;6.90;75.20;;;;;;5054203;28;20524;-83
2021/04/16 07:58:49;;;;;;;8.53;5.70;;;7.20;74.10;;;;;;5053082;28;20618;-83
2021/04/16 08:01:29;;;;;;;10.73;5.33;;;7.30;71.40;;;;;;5053936;28;20198;-83
2021/04/16 08:03:59;;;;;;;6.00;4.60;;;7.40;71.50;;;;;;5054177;28;20183;-84
2021/04/16 08:06:39;;;;;;;12.43;5.80;;;7.50;69.40;;;;;;5052914;28;20171;-84
2021/04/16 08:09:21;;;;;;;12.13;4.83;;;7.50;68.80;;;;;;5052759;28;20314;-83
2021/04/16 08:11:47;;;;;;;10.07;4.27;;;7.70;67.70;;;;;;5053868;28;20204;-84
2021/04/16 08:14:24;;;;;;;8.87;2.90;;;7.80;65.10;;;;;;5052566;28;20310;-83
2021/04/16 08:17:05;;;;;;;6.47;3.43;;;8.00;62.50;;;;;;5054173;28;20242;-83
2021/04/16 08:19:37;;;;;;;8.90;4.00;;;8.00;62.80;;;;;;5053715;28;20171;-83
2021/04/16 08:22:32;;;;;;;10.83;3.70;;;8.10;62.70;;;;;;5053943;28;20176;-83
2021/04/16 08:25:08;;;;;;;6.43;3.40;;;8.20;61.50;;;;;;5052455;28;20171;-83
2021/04/16 08:27:52;;;;;;;6.67;3.23;;;8.10;60.80;;;;;;5052508;28;20221;-85
2021/04/16 08:30:29;;;;;;;7.30;4.10;;;8.30;63.30;;;;;;5053895;28;20289;-84
2021/04/16 08:33:16;;;;;;;8.83;3.60;;;8.30;58.70;;;;;;5052370;28;20660;-85
2021/04/16 08:35:49;;;;;;;3.83;3.30;;;8.30;61.50;;;;;;5052491;28;20197;-83
2021/04/16 08:38:18;;;;;;;6.43;2.63;;;8.40;60.90;;;;;;5052326;28;20180;-83
2021/04/16 08:40:50;;;;;;;4.10;2.80;;;8.70;59.40;;;;;;5052218;28;20226;-83
2021/04/16 08:43:38;;;;;;;6.37;2.87;;;8.70;58.60;;;;;;5052559;28;20606;-84
2021/04/16 08:46:35;;;;;;;4.03;2.40;;;8.70;57.60;;;;;;5052097;28;20179;-84
2021/04/16 08:49:27;;;;;;;2.60;1.67;;;8.70;53.40;;;;;;5053517;28;20500;-83
2021/04/16 08:52:12;;;;;;;3.07;2.07;;;8.70;52.00;;;;;;5051516;28;20250;-83
2021/04/16 08:54:39;;;;;;;5.43;2.20;;;8.80;54.60;;;;;;5051995;28;20175;-83
2021/04/16 08:57:09;;;;;;;4.30;1.77;;;9.00;55.40;;;;;;5051931;28;20638;-83
2021/04/16 09:00:00;;;;;;;1.10;1.10;;;9.10;55.80;;;;;;5051792;28;20218;-83
2021/04/16 09:02:44;;;;;;;6.50;1.77;;;8.90;46.80;;;;;;5053324;28;20239;-83
2021/04/16 09:05:12;;;;;;;4.60;1.60;;;8.90;49.10;;;;;;5052785;28;20164;-84
2021/04/16 09:08:07;;;;;;;4.53;1.73;;;9.10;48.00;;;;;;5051814;28;20542;-84
2021/04/16 09:10:46;;;;;;;2.67;1.83;;;9.20;45.50;;;;;;5044979;28;20228;-83
2021/04/16 09:13:41;;;;;;;3.73;1.70;;;9.20;47.60;;;;;;5053020;28;20152;-83
2021/04/16 09:16:16;;;;;;;3.23;1.70;;;9.30;48.10;;;;;;5050796;28;20208;-84
2021/04/16 09:18:43;;;;;;;3.67;1.70;;;9.20;46.10;;;;;;5051930;28;20317;-83
2021/04/16 09:21:18;;;;;;;2.07;1.80;;;9.40;49.10;;;;;;5052877;28;20191;-83
2021/04/16 09:23:46;;;;;;;1.13;1.10;;;9.50;49.60;;;;;;5052956;28;20178;-83
2021/04/16 09:26:44;;;;;;;6.27;1.60;;;9.50;50.90;;;;;;5052992;28;20178;-83
2021/04/16 09:29:29;;;;;;;2.20;1.50;;;9.50;47.40;;;;;;5051695;28;20180;-83
2021/04/16 09:32:02;;;;;;;1.63;1.40;;;9.50;47.40;;;;;;5048780;28;20600;-83
2021/04/16 09:34:44;;;;;;;2.10;1.70;;;9.80;47.60;;;;;;5051622;28;20299;-83
2021/04/16 09:37:49;;;;;;;9.70;1.63;;;9.80;48.20;;;;;;5052937;28;20160;-83
2021/04/16 09:40:14;;;;;;;1.97;1.53;;;9.70;48.70;;;;;;5051741;28;20287;-83
2021/04/16 09:42:43;;;;;;;2.20;1.97;;;9.80;48.20;;;;;;5051542;28;20647;-84
2021/04/16 09:45:34;;;;;;;1.80;1.50;;;9.90;46.40;;;;;;5051527;28;20661;-84
2021/04/16 09:48:26;;;;;;;1.80;1.50;;;9.90;45.80;;;;;;5052722;28;20519;-84
2021/04/16 09:50:57;;;;;;;3.57;1.67;;;9.80;45.40;;;;;;5051462;28;20804;-83
2021/04/16 09:53:31;;;;;;;2.67;1.60;;;10.00;46.20;;;;;;5051705;28;20259;-83
2021/04/16 09:56:00;;;;;;;2.97;1.20;;;9.90;46.30;;;;;;5051636;28;20169;-83
2021/04/16 09:58:32;;;;;;;3.37;1.70;;;9.90;46.20;;;;;;5051561;28;20171;-83
2021/04/16 10:01:01;;;;;;;3.23;1.40;;;9.90;44.00;;;;;;5052834;28;20192;-83
2021/04/16 10:03:35;;;;;;;2.27;1.50;;;10.10;44.90;;;;;;5052929;28;20167;-84
2021/04/16 10:06:31;;;;;;;2.87;1.60;;;10.00;46.70;;;;;;5051381;28;20178;-84
2021/04/16 10:09:15;;;;;;;1.90;1.70;;;10.10;42.60;;;;;;5052505;28;20176;-84
2021/04/16 10:11:58;;;;;;;2.13;1.37;;;10.30;45.30;;;;;;5052438;28;20203;-83
2021/04/16 10:14:23;;;;;;;2.50;1.53;;;10.10;42.60;;;;;;5051384;28;20172;-83
2021/04/16 10:16:57;;;;;;;3.87;1.20;;;10.30;45.10;;;;;;5052354;28;20627;-83
2021/04/16 10:19:27;;;;;;;3.40;1.27;;;10.20;43.80;;;;;;5056488;28;20169;-83
2021/04/16 10:21:53;;;;;;;2.03;1.50;;;10.30;43.50;;;;;;5056255;28;20192;-83
2021/04/16 10:28:48;;;;;;;4.23;1.70;;;10.40;42.60;;;;;;5056112;28;20183;-83
2021/04/16 12:39:00;;;;;;;1.83;1.10;;;11.40;38.20;;;;;;5054029;28;20679;-84
2021/04/16 12:41:35;;;;;;;2.20;1.40;;;11.80;39.60;;;;;;5051388;28;20625;-83
2021/04/16 12:44:01;;;;;;;1.87;1.00;;;11.90;38.10;;;;;;5053910;28;20190;-84
2021/04/16 12:46:36;;;;;;;2.33;0.97;;;11.80;37.60;;;;;;5052091;28;20247;-83
2021/04/16 12:49:02;;;;;;;1.77;1.40;;;11.70;38.10;;;;;;5053434;28;20625;-84
2021/04/16 12:51:28;;;;;;;3.33;1.30;;;11.70;38.90;;;;;;5051847;28;20708;-84
2021/04/16 12:53:53;;;;;;;1.50;1.37;;;11.70;38.60;;;;;;5053183;28;20168;-84
2021/04/16 12:56:29;;;;;;;2.30;1.20;;;11.70;40.10;;;;;;5053134;28;20168;-84
2021/04/16 12:59:01;;;;;;;1.97;1.20;;;11.80;38.60;;;;;;5053207;28;20156;-84
2021/04/16 13:01:29;;;;;;;3.10;1.30;;;12.00;37.90;;;;;;5051892;28;20677;-84
2021/04/16 13:03:55;;;;;;;2.47;1.00;;;12.20;42.50;;;;;;5051939;28;20226;-84
2021/04/16 13:06:26;;;;;;;5.47;2.10;;;11.90;36.30;;;;;;5051966;28;20673;-84
2021/04/16 13:08:53;;;;;;;1.43;1.30;;;11.90;41.10;;;;;;5053253;28;20194;-84
2021/04/16 13:11:20;;;;;;;6.03;1.20;;;11.70;37.80;;;;;;5051617;28;20298;-84
2021/04/16 13:13:46;;;;;;;3.27;1.30;;;11.70;37.30;;;;;;5053090;28;20172;-84
2021/04/16 13:16:12;;;;;;;3.00;1.80;;;11.60;38.40;;;;;;5052318;28;20180;-84
2021/04/16 13:18:41;;;;;;;1.47;1.20;;;11.70;40.50;;;;;;5053186;28;20542;-84
2021/04/16 13:21:15;;;;;;;1.47;1.10;;;12.00;39.70;;;;;;5051601;28;20341;-84
2021/04/16 13:23:40;;;;;;;3.80;1.30;;;12.20;37.90;;;;;;5052995;28;20213;-84
2021/04/16 13:26:06;;;;;;;3.63;1.50;;;11.80;38.00;;;;;;5053177;28;20250;-84
2021/04/16 13:28:32;;;;;;;2.33;1.30;;;12.10;38.20;;;;;;5053023;28;20676;-84
2021/04/16 13:30:59;;;;;;;2.57;1.33;;;12.20;40.40;;;;;;5052723;28;20200;-84
2021/04/16 13:33:24;;;;;;;2.93;1.40;;;12.30;43.00;;;;;;5052814;28;20280;-84
2021/04/16 13:35:56;;;;;;;4.10;1.57;;;12.00;41.70;;;;;;5051549;28;20180;-84
2021/04/16 13:38:28;;;;;;;2.00;1.40;;;11.90;40.00;;;;;;5051612;28;20165;-84
2021/04/16 13:40:55;;;;;;;2.20;1.37;;;11.80;39.10;;;;;;5053058;28;20200;-84
2021/04/16 13:43:22;;;;;;;3.27;1.77;;;11.80;40.20;;;;;;5051561;28;20271;-84
2021/04/16 13:45:49;;;;;;;1.77;1.50;;;11.70;39.50;;;;;;5053036;28;20663;-84
2021/04/16 13:48:16;;;;;;;2.87;1.47;;;11.70;41.10;;;;;;5051478;28;20688;-84
2021/04/16 13:50:42;;;;;;;3.87;1.30;;;11.90;40.70;;;;;;5051448;28;20707;-84
2021/04/16 13:53:09;;;;;;;3.60;1.40;;;12.10;40.00;;;;;;5054869;28;20168;-84
2021/04/16 13:55:34;;;;;;;1.87;1.30;;;11.90;40.10;;;;;;5055229;28;20584;-84
2021/04/16 13:58:00;;;;;;;3.57;1.60;;;11.80;41.90;;;;;;5055214;28;20168;-83
2021/04/16 14:00:30;;;;;;;3.33;1.30;;;11.90;42.40;;;;;;5056348;28;20617;-84
2021/04/16 14:03:05;;;;;;;1.33;1.23;;;11.80;41.60;;;;;;5056407;28;20179;-84
2021/04/16 14:05:31;;;;;;;1.70;1.17;;;11.80;37.50;;;;;;5056521;28;20586;-84
2021/04/16 14:08:01;;;;;;;2.93;1.23;;;11.70;41.30;;;;;;5056943;28;20229;-84
2021/04/16 14:10:29;;;;;;;1.70;1.20;;;11.50;38.20;;;;;;5056014;28;20204;-84
2021/04/16 14:12:55;;;;;;;1.87;1.40;;;11.50;39.40;;;;;;5056175;28;20242;-84
2021/04/16 14:15:21;;;;;;;1.27;1.03;;;11.70;38.90;;;;;;5056431;28;20168;-84
2021/04/16 14:17:57;;;;;;;2.87;1.10;;;11.60;38.40;;;;;;5056440;28;20537;-84
2021/04/16 14:20:40;;;;;;;1.37;1.07;;;11.50;36.90;;;;;;5056453;28;20669;-84
2021/04/16 14:23:11;;;;;;;5.57;1.20;;;11.40;35.90;;;;;;5056258;28;20183;-84
2021/04/16 14:25:39;;;;;;;1.33;1.10;;;11.30;36.60;;;;;;5056227;28;20156;-84
2021/04/16 14:28:09;;;;;;;3.87;1.40;;;11.50;38.20;;;;;;5054551;28;20179;-83
2021/04/16 14:30:36;;;;;;;3.53;1.23;;;11.40;39.80;;;;;;5055605;28;20208;-84
2021/04/16 14:33:05;;;;;;;5.70;1.47;;;11.70;38.80;;;;;;5054534;28;20654;-83
2021/04/16 14:35:32;;;;;;;2.50;1.50;;;11.60;39.30;;;;;;5054454;28;20168;-84
2021/04/16 14:38:01;;;;;;;3.93;2.03;;;11.70;41.40;;;;;;5054295;28;20633;-83
2021/04/16 14:40:27;;;;;;;3.17;1.73;;;11.70;40.40;;;;;;5055879;28;20188;-84
2021/04/16 14:42:53;;;;;;;7.53;1.87;;;11.80;40.90;;;;;;5054402;28;20180;-84
2021/04/16 14:45:33;;;;;;;2.30;1.57;;;11.80;41.50;;;;;;5055674;28;20721;-84
2021/04/16 14:48:00;;;;;;;4.37;1.77;;;11.70;39.20;;;;;;5054117;28;20259;-84
2021/04/16 14:50:27;;;;;;;3.33;1.50;;;11.60;38.00;;;;;;5056209;28;20623;-84
2021/04/16 14:52:55;;;;;;;3.43;1.70;;;11.40;39.00;;;;;;5054035;28;20274;-85
2021/04/16 14:55:27;;;;;;;1.53;1.20;;;11.50;39.10;;;;;;5055344;28;20571;-84
2021/04/16 14:57:55;;;;;;;4.80;1.43;;;11.60;38.60;;;;;;5053963;28;20262;-84
2021/04/16 15:00:23;;;;;;;4.27;1.80;;;11.70;43.10;;;;;;5057348;28;20188;-85
2021/04/16 15:02:49;;;;;;;2.67;1.53;;;11.60;39.50;;;;;;5057464;28;20533;-84
2021/04/16 15:05:18;;;;;;;2.03;1.60;;;11.50;39.40;;;;;;5055194;28;20194;-84
2021/04/16 15:07:57;;;;;;;2.23;1.47;;;11.40;38.70;;;;;;5053813;28;20195;-83
2021/04/16 15:10:33;;;;;;;2.50;1.60;;;11.40;39.80;;;;;;5055169;28;20245;-84
2021/04/16 15:12:59;;;;;;;2.80;1.73;;;11.50;38.30;;;;;;5053744;28;20656;-84
2021/04/16 15:15:40;;;;;;;1.40;1.30;;;11.50;38.90;;;;;;5055124;28;20169;-84
2021/04/16 15:18:07;;;;;;;2.90;1.40;;;11.40;37.60;;;;;;5053584;28;20645;-84
2021/04/16 15:20:34;;;;;;;2.07;1.40;;;11.30;38.90;;;;;;5053379;28;20246;-84